Terminal Aerodrome Forecast
Issued by NWS

Home | Current Version | Previous Version | Text Only | Print | Product List | Glossary On
Versions: 1 2 3 4 5 6 7 8 9 10 11 12 13 14 15 16
000
FTUS41 KBGM 061723
TAFELM
TAF
KELM 061723Z 0618/0718 VRB03KT P6SM SCT050 BKN080
     FM062100 VRB03KT P6SM SCT100
     FM070000 VRB02KT P6SM SCT250
      TEMPO 0709/0712 2SM BR=

USA.gov is the U.S. government's official web portal to all federal, state and local government web resources and services.